Time;durP1;ratioP1;P1;durP2;ratioP2;P2;SDS_P1;SDS_P2;PMS_P1;PMS_P2;Temp;Humidity;BMP_temperature;BMP_pressure;BME280_temperature;BME280_humidity;BME280_pressure;Samples;Min_cycle;Max_cycle;Signal;HPM_P1;HPM_P2
2023/10/10 00:02:20;;;;;;;16.03;7.10;;;11.30;99.90;;;;;;5067357;28;20428;-59
2023/10/10 00:04:49;;;;;;;14.23;6.43;;;11.20;99.90;;;;;;5062162;28;20452;-59
2023/10/10 00:07:16;;;;;;;18.53;7.27;;;11.20;99.90;;;;;;5057305;28;20524;-60
2023/10/10 00:09:44;;;;;;;18.07;7.50;;;11.20;99.90;;;;;;5051993;28;20863;-59
2023/10/10 00:12:13;;;;;;;27.67;7.40;;;11.10;99.90;;;;;;5063768;28;20448;-59
2023/10/10 00:14:39;;;;;;;9.70;6.33;;;11.10;99.90;;;;;;5061625;28;20975;-59
2023/10/10 00:17:07;;;;;;;19.57;7.43;;;11.00;99.90;;;;;;5064866;28;20431;-60
2023/10/10 00:19:42;;;;;;;22.60;6.77;;;11.00;99.90;;;;;;5066322;28;20190;-60
2023/10/10 00:22:08;;;;;;;14.53;6.20;;;11.00;99.90;;;;;;5063565;28;20509;-59
2023/10/10 00:24:34;;;;;;;12.37;5.60;;;10.90;99.90;;;;;;5063445;28;20425;-59
2023/10/10 00:27:12;;;;;;;15.07;6.33;;;10.90;99.90;;;;;;5063294;28;20844;-59
2023/10/10 00:29:42;;;;;;;13.67;5.73;;;10.90;99.90;;;;;;5064511;28;20178;-59
2023/10/10 00:32:16;;;;;;;15.27;6.70;;;10.90;99.90;;;;;;5066273;28;20482;-59
2023/10/10 00:34:48;;;;;;;17.90;6.43;;;10.90;99.90;;;;;;5052592;28;20495;-60
2023/10/10 00:37:25;;;;;;;14.80;6.67;;;10.90;99.90;;;;;;5067310;28;20416;-60
2023/10/10 00:39:53;;;;;;;15.30;5.90;;;10.90;99.90;;;;;;5069346;28;20815;-59
2023/10/10 00:42:37;;;;;;;16.87;7.33;;;10.90;99.90;;;;;;5070965;28;20466;-60
2023/10/10 00:45:10;;;;;;;14.50;6.33;;;10.90;99.90;;;;;;5070516;28;21081;-61
2023/10/10 00:47:43;;;;;;;22.33;6.73;;;10.80;99.90;;;;;;5070716;28;20442;-59
2023/10/10 00:50:19;;;;;;;18.07;6.30;;;10.80;99.90;;;;;;5067528;28;20511;-59
2023/10/10 00:52:48;;;;;;;14.60;6.37;;;10.80;99.90;;;;;;5066643;28;20864;-59
2023/10/10 00:55:14;;;;;;;19.03;6.63;;;10.70;99.90;;;;;;5070290;28;20868;-60
2023/10/10 00:57:42;;;;;;;15.27;6.63;;;10.70;99.90;;;;;;5068998;28;20416;-59
2023/10/10 01:00:15;;;;;;;16.03;6.07;;;10.60;99.90;;;;;;5064065;28;20911;-60
2023/10/10 01:02:42;;;;;;;13.50;5.77;;;10.60;99.90;;;;;;5068015;28;20412;-60
2023/10/10 01:05:15;;;;;;;16.83;6.43;;;10.60;99.90;;;;;;5070162;28;20420;-60
2023/10/10 01:07:46;;;;;;;22.77;5.53;;;10.50;99.90;;;;;;5065582;28;20428;-60
2023/10/10 01:10:12;;;;;;;13.70;5.60;;;10.50;99.90;;;;;;5069062;28;20517;-59
2023/10/10 01:12:39;;;;;;;16.30;6.87;;;10.40;99.90;;;;;;5069050;28;21026;-59
2023/10/10 01:15:16;;;;;;;12.20;5.67;;;10.40;99.90;;;;;;5066932;28;20479;-60
2023/10/10 01:17:46;;;;;;;16.50;6.37;;;10.40;99.90;;;;;;5068346;28;20423;-59
2023/10/10 01:20:33;;;;;;;11.07;5.87;;;10.30;99.90;;;;;;5069805;28;20860;-59
2023/10/10 01:22:57;;;;;;;16.83;6.60;;;10.30;99.90;;;;;;5068224;28;20419;-59
2023/10/10 01:28:03;;;;;;;12.80;5.80;;;10.30;99.90;;;;;;5069084;28;20751;-59
2023/10/10 01:30:49;;;;;;;14.97;6.20;;;10.20;99.90;;;;;;5068912;28;20583;-59
2023/10/10 01:33:35;;;;;;;14.60;6.10;;;10.20;99.90;;;;;;5067780;28;20536;-59
2023/10/10 01:36:21;;;;;;;13.93;6.57;;;10.10;99.90;;;;;;5060448;28;21002;-60
2023/10/10 01:38:59;;;;;;;12.73;6.00;;;10.10;99.90;;;;;;5069084;28;20425;-59
2023/10/10 01:41:31;;;;;;;14.80;5.90;;;10.10;99.90;;;;;;5067373;28;20445;-59
2023/10/10 01:44:12;;;;;;;14.13;6.37;;;10.00;99.90;;;;;;5062484;28;20471;-59
2023/10/10 01:46:42;;;;;;;24.57;7.00;;;10.00;99.90;;;;;;5061017;28;20428;-59
2023/10/10 01:49:13;;;;;;;25.73;6.20;;;10.00;99.90;;;;;;5063328;28;20425;-60
2023/10/10 01:51:43;;;;;;;21.03;6.20;;;10.00;99.90;;;;;;5069585;28;20463;-60
2023/10/10 01:54:18;;;;;;;13.80;5.97;;;9.90;99.90;;;;;;5067734;28;20543;-59
2023/10/10 01:56:44;;;;;;;25.23;6.40;;;9.90;99.90;;;;;;5066272;28;20431;-58
2023/10/10 01:59:13;;;;;;;17.53;6.13;;;9.90;99.90;;;;;;5069422;28;20962;-59
2023/10/10 02:01:41;;;;;;;18.63;6.70;;;9.90;99.90;;;;;;5069210;28;20437;-60
2023/10/10 02:04:07;;;;;;;17.60;7.07;;;9.90;99.90;;;;;;5066718;28;20478;-59
2023/10/10 02:06:35;;;;;;;18.33;6.30;;;9.90;99.90;;;;;;5056046;28;20433;-60
2023/10/10 02:12:04;;;;;;;29.33;6.13;;;9.90;99.90;;;;;;5058461;28;20451;-60
2023/10/10 02:14:30;;;;;;;17.57;4.63;;;9.90;99.90;;;;;;5065542;28;22273;-58
2023/10/10 02:17:06;;;;;;;14.63;3.90;;;9.90;99.90;;;;;;5063174;28;20931;-60
2023/10/10 02:19:41;;;;;;;18.23;4.23;;;9.80;99.90;;;;;;5066441;28;20417;-59
2023/10/10 02:22:47;;;;;;;8.10;4.33;;;9.80;99.90;;;;;;5063992;28;20444;-59
2023/10/10 02:25:46;;;;;;;7.90;4.10;;;9.80;99.90;;;;;;5065789;28;20453;-60
2023/10/10 02:27:55;;;;;;;6.80;3.73;;;9.70;99.90;;;;;;5070584;28;21918;-59
2023/10/10 02:30:38;;;;;;;18.53;5.10;;;9.70;99.90;;;;;;5062520;28;20441;-59
2023/10/10 02:35:56;;;;;;;11.30;4.97;;;9.70;99.90;;;;;;5069062;28;20424;-59
2023/10/10 02:38:39;;;;;;;8.30;4.50;;;9.70;99.90;;;;;;5062807;28;20465;-58
2023/10/10 02:43:56;;;;;;;13.20;5.73;;;9.60;99.90;;;;;;5067803;28;20508;-59
2023/10/10 02:46:36;;;;;;;13.50;5.27;;;9.60;99.90;;;;;;5068243;28;20425;-59
2023/10/10 02:51:55;;;;;;;17.73;6.13;;;9.60;99.90;;;;;;5065279;28;20824;-59
2023/10/10 02:54:28;;;;;;;;;;;;;;;;;;;;;
2023/10/10 02:56:48;;;;;;;10.63;5.77;;;9.50;99.90;;;;;;5065413;28;20432;-59
2023/10/10 02:59:22;;;;;;;26.47;6.23;;;9.50;99.90;;;;;;5068153;28;20435;-60
2023/10/10 03:01:57;;;;;;;14.93;6.20;;;9.50;99.90;;;;;;5067670;28;20962;-59
2023/10/10 03:04:52;;;;;;;13.03;4.80;;;9.40;99.90;;;;;;5059966;28;20444;-59
2023/10/10 03:07:19;;;;;;;12.50;6.10;;;9.40;99.90;;;;;;5065833;28;20463;-60
2023/10/10 03:12:36;;;;;;;17.70;6.37;;;9.30;99.90;;;;;;5060378;28;20532;-59
2023/10/10 03:15:27;;;;;;;19.60;6.87;;;9.30;99.90;;;;;;5060876;28;21144;-60
2023/10/10 03:25:53;;;;;;;29.20;6.27;;;9.20;99.90;;;;;;5067545;28;20432;-60
2023/10/10 03:29:03;;;;;;;26.43;6.07;;;9.10;99.90;;;;;;5068381;28;20416;-59
2023/10/10 05:25:23;;;;;;;13.27;5.33;;;8.40;99.90;;;;;;5065416;28;20889;-59
2023/10/10 05:27:52;;;;;;;35.70;7.20;;;8.40;99.90;;;;;;5069688;28;20424;-60
2023/10/10 05:30:39;;;;;;;24.43;6.80;;;8.40;99.90;;;;;;5069653;28;20201;-59
2023/10/10 05:33:05;;;;;;;20.63;6.37;;;8.40;99.90;;;;;;5067531;28;20759;-60
2023/10/10 05:35:33;;;;;;;25.97;7.57;;;8.30;99.90;;;;;;5064904;28;20831;-59
2023/10/10 05:38:04;;;;;;;16.83;7.20;;;8.30;99.90;;;;;;5070542;28;20408;-60
2023/10/10 05:40:33;;;;;;;13.30;5.93;;;8.20;99.90;;;;;;5067342;28;20444;-60
2023/10/10 05:42:59;;;;;;;19.10;5.60;;;8.20;99.90;;;;;;5069191;28;20420;-59
2023/10/10 05:45:25;;;;;;;13.20;5.63;;;8.20;99.90;;;;;;5067583;28;20482;-59
2023/10/10 05:47:51;;;;;;;13.43;6.03;;;8.20;99.90;;;;;;5070148;28;21755;-59
2023/10/10 05:50:18;;;;;;;16.03;4.50;;;8.20;99.90;;;;;;5067311;28;20259;-59
2023/10/10 05:52:44;;;;;;;5.73;4.10;;;8.20;99.90;;;;;;5063172;28;20198;-59
2023/10/10 05:55:10;;;;;;;9.03;4.63;;;8.20;99.90;;;;;;5059983;28;20452;-59
2023/10/10 05:57:40;;;;;;;5.53;3.93;;;8.20;99.90;;;;;;5069544;28;20420;-60
2023/10/10 06:00:10;;;;;;;13.97;5.47;;;8.20;99.90;;;;;;5068859;28;20417;-60
2023/10/10 06:02:46;;;;;;;6.93;4.50;;;8.20;99.90;;;;;;5058382;28;20572;-59
2023/10/10 06:05:15;;;;;;;16.27;4.90;;;8.20;99.90;;;;;;5061920;28;20780;-59
2023/10/10 06:07:44;;;;;;;10.23;4.20;;;8.20;99.90;;;;;;5065520;28;20490;-59
2023/10/10 06:10:16;;;;;;;11.50;5.10;;;8.20;99.90;;;;;;5063233;28;20424;-59
2023/10/10 06:12:46;;;;;;;14.83;4.73;;;8.20;99.90;;;;;;5068922;28;21080;-60
2023/10/10 06:15:13;;;;;;;14.37;5.63;;;8.10;99.90;;;;;;5069474;28;20544;-60
2023/10/10 06:17:41;;;;;;;8.17;4.63;;;8.10;99.90;;;;;;5068841;28;20428;-59
2023/10/10 06:20:08;;;;;;;11.90;5.23;;;8.10;99.90;;;;;;5069181;28;20854;-59
2023/10/10 06:22:34;;;;;;;14.60;5.87;;;8.10;99.90;;;;;;5065739;28;20947;-59
2023/10/10 06:24:59;;;;;;;8.87;4.73;;;8.10;99.90;;;;;;5065585;28;20416;-59
2023/10/10 06:27:28;;;;;;;9.87;5.60;;;8.10;99.90;;;;;;5062467;28;20194;-59
2023/10/10 06:30:01;;;;;;;6.70;4.47;;;8.10;99.90;;;;;;5064612;28;20167;-59
2023/10/10 06:32:31;;;;;;;9.03;5.30;;;8.10;99.90;;;;;;5067938;28;20409;-59
2023/10/10 06:37:43;;;;;;;13.50;6.00;;;8.30;99.90;;;;;;5068026;28;20424;-59
2023/10/10 06:40:10;;;;;;;9.57;5.57;;;8.40;99.90;;;;;;5067914;28;20889;-59
2023/10/10 06:42:44;;;;;;;11.93;7.20;;;8.50;99.90;;;;;;5068988;28;20476;-58
2023/10/10 06:45:21;;;;;;;9.77;6.57;;;8.50;99.90;;;;;;5065698;28;20517;-59
2023/10/10 06:47:50;;;;;;;12.13;7.60;;;8.60;99.90;;;;;;5068492;28;20423;-59
2023/10/10 06:50:21;;;;;;;11.57;6.53;;;8.70;99.90;;;;;;5067712;28;20437;-62
2023/10/10 06:52:53;;;;;;;15.70;6.33;;;8.80;99.90;;;;;;5061860;28;20503;-59
2023/10/10 06:55:23;;;;;;;9.33;5.70;;;8.80;99.90;;;;;;5069170;28;20466;-59
2023/10/10 06:58:01;;;;;;;13.83;6.10;;;8.90;99.90;;;;;;5068331;28;20421;-59
2023/10/10 07:00:28;;;;;;;8.60;4.90;;;9.00;99.90;;;;;;5061784;28;20453;-59
2023/10/10 07:02:55;;;;;;;9.20;5.80;;;9.10;99.90;;;;;;5065744;28;20455;-59
2023/10/10 07:05:26;;;;;;;12.03;5.70;;;9.20;99.90;;;;;;5066904;28;20417;-59
2023/10/10 07:07:57;;;;;;;19.73;6.00;;;9.20;99.90;;;;;;5064122;28;21013;-59
2023/10/10 07:10:26;;;;;;;10.53;5.50;;;9.30;99.90;;;;;;5064586;28;20504;-59
2023/10/10 07:12:58;;;;;;;9.93;5.70;;;9.40;99.90;;;;;;5067639;28;20879;-59
2023/10/10 07:15:33;;;;;;;13.20;6.60;;;9.40;99.90;;;;;;5066398;28;20506;-60
2023/10/10 07:18:08;;;;;;;14.27;5.83;;;9.50;99.90;;;;;;5067339;28;20412;-59
2023/10/10 07:23:22;;;;;;;11.37;6.40;;;9.60;99.90;;;;;;5068181;28;20796;-60
2023/10/10 07:26:01;;;;;;;9.20;5.80;;;9.60;99.90;;;;;;5065886;28;20429;-60
2023/10/10 07:28:27;;;;;;;16.57;6.90;;;9.70;99.90;;;;;;5067864;28;20228;-59
2023/10/10 07:30:54;;;;;;;12.90;6.50;;;9.70;99.90;;;;;;5067728;28;20450;-59
2023/10/10 07:33:24;;;;;;;21.47;6.43;;;9.80;99.90;;;;;;5064942;28;20424;-59
2023/10/10 07:35:56;;;;;;;14.40;7.50;;;9.80;99.90;;;;;;5067020;28;20440;-60
2023/10/10 07:38:28;;;;;;;13.43;6.33;;;9.90;99.90;;;;;;5064909;28;20437;-60
2023/10/10 07:40:54;;;;;;;17.93;7.43;;;10.00;99.90;;;;;;5064260;28;20440;-60
2023/10/10 07:43:27;;;;;;;18.10;7.90;;;10.10;99.90;;;;;;5067543;28;20417;-59
2023/10/10 07:45:54;;;;;;;14.27;7.13;;;10.20;99.90;;;;;;5063952;28;21001;-60
2023/10/10 07:50:55;;;;;;;13.67;6.60;;;10.40;99.90;;;;;;5065981;28;20468;-60
2023/10/10 07:53:31;;;;;;;15.17;6.90;;;10.40;99.90;;;;;;5061885;28;20425;-60
2023/10/10 07:56:02;;;;;;;18.57;7.20;;;10.50;99.90;;;;;;5066146;28;20491;-59
2023/10/10 07:58:42;;;;;;;14.40;6.30;;;10.60;99.90;;;;;;5056343;28;20421;-59
2023/10/10 08:01:10;;;;;;;17.10;6.40;;;10.70;99.90;;;;;;5067293;28;20436;-59
2023/10/10 08:03:36;;;;;;;9.57;6.40;;;10.90;99.90;;;;;;5064323;28;20428;-59
2023/10/10 08:06:08;;;;;;;23.90;6.60;;;11.00;99.90;;;;;;5058886;28;20461;-60
2023/10/10 08:08:35;;;;;;;17.30;7.47;;;11.10;99.90;;;;;;5063840;28;20416;-59
2023/10/10 08:11:12;;;;;;;22.73;7.57;;;11.10;99.90;;;;;;5063834;28;20460;-60
2023/10/10 08:13:39;;;;;;;18.60;6.70;;;11.20;99.90;;;;;;5060903;28;20495;-59
2023/10/10 08:16:06;;;;;;;21.93;7.10;;;11.30;99.90;;;;;;5066736;28;20412;-59
2023/10/10 08:21:15;;;;;;;19.73;6.23;;;11.50;99.90;;;;;;5061693;28;20937;-59
2023/10/10 08:23:49;;;;;;;18.67;6.80;;;11.60;99.90;;;;;;5063873;28;20930;-60
2023/10/10 08:26:24;;;;;;;16.20;5.33;;;11.60;99.90;;;;;;5067809;28;20423;-60
2023/10/10 08:28:51;;;;;;;24.37;7.40;;;11.70;99.90;;;;;;5062058;28;20948;-60
2023/10/10 08:31:18;;;;;;;16.43;7.47;;;11.80;99.90;;;;;;5067206;28;20934;-59
2023/10/10 08:33:46;;;;;;;16.17;8.10;;;12.00;99.90;;;;;;5067040;28;20455;-60
2023/10/10 08:36:23;;;;;;;16.40;7.47;;;12.10;99.90;;;;;;5067398;28;20821;-59
2023/10/10 08:38:56;;;;;;;34.90;7.77;;;12.20;99.90;;;;;;5065623;28;20680;-59
2023/10/10 08:41:27;;;;;;;19.47;6.80;;;12.30;99.90;;;;;;5063359;28;20441;-59
2023/10/10 08:44:03;;;;;;;17.90;6.60;;;12.40;99.90;;;;;;5066385;28;20487;-60
2023/10/10 08:46:31;;;;;;;23.83;7.73;;;12.50;99.90;;;;;;5065337;28;20503;-59
2023/10/10 08:49:03;;;;;;;31.37;7.63;;;12.60;99.90;;;;;;5062653;28;20432;-60
2023/10/10 08:51:34;;;;;;;24.53;7.60;;;12.80;99.90;;;;;;5064242;28;20453;-60
2023/10/10 08:54:10;;;;;;;29.10;8.50;;;12.90;99.90;;;;;;5065791;28;20440;-60
2023/10/10 08:56:41;;;;;;;24.37;8.37;;;13.00;99.90;;;;;;5063035;28;20425;-59
2023/10/10 08:59:08;;;;;;;24.93;8.17;;;13.10;99.90;;;;;;5068787;28;20420;-60
2023/10/10 09:01:35;;;;;;;27.30;8.10;;;13.20;99.90;;;;;;5067227;28;20885;-59
2023/10/10 09:04:03;;;;;;;26.73;7.87;;;13.30;99.90;;;;;;5065518;28;20482;-60
2023/10/10 09:07:01;;;;;;;26.80;8.10;;;13.40;99.90;;;;;;5067621;28;20428;-59
2023/10/10 09:09:39;;;;;;;28.40;7.70;;;13.60;99.90;;;;;;5068860;28;20527;-59
2023/10/10 09:12:14;;;;;;;23.00;8.03;;;13.80;99.90;;;;;;5068228;28;20954;-60
2023/10/10 09:14:40;;;;;;;32.03;9.30;;;14.00;99.90;;;;;;5066788;28;20466;-59
2023/10/10 09:17:10;;;;;;;31.37;9.13;;;14.20;99.90;;;;;;5070800;28;20420;-59
2023/10/10 09:19:46;;;;;;;27.10;8.37;;;14.30;99.90;;;;;;5067306;28;20495;-60
2023/10/10 09:22:25;;;;;;;18.87;7.30;;;14.50;99.90;;;;;;5058425;28;20432;-60
2023/10/10 09:24:55;;;;;;;18.03;6.93;;;14.60;99.90;;;;;;5066529;28;20412;-59
2023/10/10 09:27:28;;;;;;;33.90;7.37;;;14.70;99.90;;;;;;5066863;28;20420;-60
2023/10/10 09:29:56;;;;;;;19.67;6.93;;;14.90;99.90;;;;;;5060994;28;20437;-60
2023/10/10 09:32:42;;;;;;;24.97;7.33;;;15.10;99.90;;;;;;5054060;28;20532;-60
2023/10/10 09:35:08;;;;;;;18.30;7.67;;;15.30;99.90;;;;;;5064526;28;20468;-60
2023/10/10 09:37:38;;;;;;;16.27;7.30;;;15.50;99.90;;;;;;5066763;28;20435;-59
2023/10/10 09:40:15;;;;;;;24.83;7.77;;;15.70;99.90;;;;;;5066665;28;20415;-60
2023/10/10 09:43:03;;;;;;;16.20;6.90;;;15.90;99.90;;;;;;5068427;28;20408;-61
2023/10/10 09:48:28;;;;;;;43.67;7.60;;;16.20;99.90;;;;;;5068326;28;20795;-60
2023/10/10 09:51:30;;;;;;;23.33;7.17;;;16.40;99.90;;;;;;5068631;28;20448;-60
2023/10/10 09:54:08;;;;;;;25.63;7.63;;;16.50;99.90;;;;;;5065911;28;20547;-59
2023/10/10 09:56:37;;;;;;;29.73;8.40;;;16.50;99.90;;;;;;5064134;28;20431;-59
2023/10/10 09:59:07;;;;;;;28.60;8.73;;;16.60;99.90;;;;;;5066596;28;20425;-60
2023/10/10 10:01:45;;;;;;;30.93;7.03;;;16.80;99.90;;;;;;5067189;28;20605;-60
2023/10/10 10:04:18;;;;;;;26.17;8.53;;;16.90;99.90;;;;;;5064354;28;20432;-60
2023/10/10 10:07:13;;;;;;;27.40;7.47;;;17.10;99.90;;;;;;5061344;28;20465;-60
2023/10/10 10:09:45;;;;;;;20.60;7.13;;;17.30;99.90;;;;;;5072492;28;20436;-59
2023/10/10 10:12:33;;;;;;;21.20;7.07;;;17.50;99.90;;;;;;5059150;28;20444;-60
2023/10/10 10:15:19;;;;;;;26.40;7.37;;;17.70;99.90;;;;;;5065891;28;20962;-59
2023/10/10 10:18:13;;;;;;;18.43;5.77;;;17.90;99.90;;;;;;5068532;28;20499;-59
2023/10/10 10:23:27;;;;;;;20.80;5.80;;;18.40;95.70;;;;;;5066894;28;20535;-59
2023/10/10 10:26:10;;;;;;;22.13;5.50;;;18.60;94.30;;;;;;5065721;28;20417;-59
2023/10/10 10:28:37;;;;;;;24.10;5.80;;;18.90;86.20;;;;;;5066528;28;20416;-59
2023/10/10 10:31:30;;;;;;;18.70;4.80;;;19.00;84.10;;;;;;5060319;28;20440;-60
2023/10/10 10:34:05;;;;;;;21.33;5.80;;;19.20;83.60;;;;;;5061831;28;20500;-59
2023/10/10 10:36:50;;;;;;;18.80;4.97;;;19.30;78.20;;;;;;5069474;28;20413;-59
2023/10/10 10:39:25;;;;;;;28.90;5.27;;;19.50;74.40;;;;;;5065319;28;20427;-60
2023/10/10 10:41:59;;;;;;;22.90;4.90;;;19.60;72.90;;;;;;5064137;28;20458;-59
2023/10/10 10:44:44;;;;;;;17.47;5.10;;;19.80;72.00;;;;;;5063727;28;20419;-60
2023/10/10 10:47:38;;;;;;;14.57;5.73;;;20.00;70.50;;;;;;5062901;28;20416;-59
2023/10/10 10:50:20;;;;;;;16.70;5.30;;;20.10;69.10;;;;;;5062133;28;20413;-60
2023/10/10 10:52:57;;;;;;;15.93;5.50;;;20.20;67.10;;;;;;5064004;28;20417;-60
2023/10/10 10:55:29;;;;;;;18.77;5.10;;;20.30;65.40;;;;;;5060208;28;20453;-59
2023/10/10 10:58:20;;;;;;;31.17;4.60;;;20.40;64.70;;;;;;5063581;28;20805;-59
2023/10/10 11:03:33;;;;;;;21.50;4.90;;;20.60;60.50;;;;;;5064252;28;20409;-60
2023/10/10 11:06:00;;;;;;;26.83;4.93;;;20.90;62.10;;;;;;5065522;28;20413;-59
2023/10/10 11:11:23;;;;;;;15.27;4.83;;;21.30;60.90;;;;;;5061786;28;21209;-60
2023/10/10 11:14:00;;;;;;;16.80;4.60;;;21.50;58.70;;;;;;5063428;28;20498;-60
2023/10/10 11:16:39;;;;;;;18.67;4.90;;;21.70;56.40;;;;;;5067599;28;20469;-60
2023/10/10 11:19:18;;;;;;;18.40;5.20;;;21.90;56.30;;;;;;5062124;28;20424;-60
2023/10/10 11:21:48;;;;;;;32.43;5.90;;;22.00;56.70;;;;;;5067258;28;20444;-60
2023/10/10 11:24:15;;;;;;;15.07;4.40;;;22.20;57.30;;;;;;5062468;28;20435;-60
2023/10/10 11:26:43;;;;;;;23.90;5.53;;;22.40;57.00;;;;;;5067720;28;20424;-60
2023/10/10 11:29:27;;;;;;;14.93;4.43;;;22.50;54.80;;;;;;5060445;28;20911;-60
2023/10/10 11:32:06;;;;;;;16.90;4.53;;;22.60;55.80;;;;;;5056567;28;20476;-61
2023/10/10 11:34:56;;;;;;;69.47;7.50;;;22.80;55.70;;;;;;5065241;28;20548;-60
2023/10/10 11:37:21;;;;;;;19.50;4.97;;;23.00;55.90;;;;;;5059773;28;20444;-61
2023/10/10 11:39:59;;;;;;;14.07;3.93;;;23.20;55.60;;;;;;5065158;28;20436;-60
2023/10/10 11:42:35;;;;;;;11.73;4.17;;;23.60;54.90;;;;;;5068207;28;20440;-61
2023/10/10 11:45:05;;;;;;;15.37;4.90;;;24.00;53.10;;;;;;5066484;28;20469;-60
2023/10/10 11:47:31;;;;;;;15.87;4.70;;;24.50;51.40;;;;;;5065241;28;20424;-61
2023/10/10 11:50:00;;;;;;;16.33;4.30;;;25.00;50.90;;;;;;5061739;28;20954;-61
2023/10/10 11:52:27;;;;;;;18.13;4.90;;;25.30;49.50;;;;;;5060573;28;20518;-61
2023/10/10 11:55:00;;;;;;;13.37;4.27;;;25.60;49.20;;;;;;5063880;28;20578;-61
2023/10/10 11:57:33;;;;;;;15.90;5.27;;;25.70;48.70;;;;;;5067457;28;20267;-61
2023/10/10 12:00:05;;;;;;;18.63;4.80;;;25.70;46.50;;;;;;5059333;28;20227;-61
2023/10/10 12:02:39;;;;;;;22.20;4.67;;;25.70;46.30;;;;;;5062335;28;20234;-60
2023/10/10 12:05:35;;;;;;;18.50;4.63;;;25.50;45.50;;;;;;5060827;28;20174;-60
2023/10/10 12:07:53;;;;;;;17.90;4.83;;;25.30;46.10;;;;;;5065394;28;20186;-60
2023/10/10 12:10:24;;;;;;;16.63;4.30;;;25.10;46.60;;;;;;5059575;28;21098;-60
2023/10/10 12:12:53;;;;;;;20.10;5.37;;;24.90;46.80;;;;;;5066280;28;20440;-60
2023/10/10 12:15:22;;;;;;;12.33;3.60;;;24.70;46.40;;;;;;5064680;28;20543;-60
2023/10/10 12:17:48;;;;;;;13.97;4.53;;;24.60;45.30;;;;;;5066251;28;20427;-60
2023/10/10 12:20:16;;;;;;;12.10;4.07;;;24.60;45.70;;;;;;5064654;28;20465;-61
2023/10/10 12:22:42;;;;;;;7.47;3.80;;;24.70;45.80;;;;;;5066197;28;20433;-60
2023/10/10 12:25:13;;;;;;;18.00;4.10;;;24.80;45.60;;;;;;5064511;28;20440;-60
2023/10/10 12:27:46;;;;;;;10.80;4.40;;;24.80;46.10;;;;;;5064637;28;20182;-59
2023/10/10 12:30:13;;;;;;;15.67;5.20;;;24.80;46.60;;;;;;5056906;28;20428;-60
2023/10/10 12:32:38;;;;;;;16.73;4.73;;;24.70;44.20;;;;;;5061128;28;20433;-59
2023/10/10 12:35:04;;;;;;;20.13;5.10;;;24.80;43.50;;;;;;5065548;28;20506;-61
2023/10/10 12:37:37;;;;;;;21.50;4.87;;;24.80;43.10;;;;;;5063667;28;20188;-60
2023/10/10 12:40:08;;;;;;;10.83;4.20;;;24.90;43.20;;;;;;5066216;28;20903;-60
2023/10/10 12:42:35;;;;;;;37.70;4.50;;;25.20;43.50;;;;;;5064220;28;20469;-60
2023/10/10 12:45:01;;;;;;;18.30;4.40;;;25.60;42.70;;;;;;5059250;28;20988;-60
2023/10/10 12:47:31;;;;;;;15.77;3.60;;;25.80;41.50;;;;;;5060102;28;20424;-60
2023/10/10 12:50:00;;;;;;;13.03;4.20;;;25.80;42.60;;;;;;5060634;28;20211;-60
2023/10/10 12:52:34;;;;;;;13.67;5.00;;;25.80;44.10;;;;;;5064796;28;20482;-59
2023/10/10 12:55:01;;;;;;;19.93;5.70;;;25.90;45.90;;;;;;5065416;28;20451;-59
2023/10/10 12:57:32;;;;;;;14.90;4.80;;;26.10;47.40;;;;;;5062214;28;20962;-59
2023/10/10 13:00:23;;;;;;;20.30;5.30;;;26.30;46.90;;;;;;5058774;28;20468;-59
2023/10/10 13:02:43;;;;;;;16.93;4.77;;;26.50;46.10;;;;;;5067108;28;20482;-60
2023/10/10 13:05:11;;;;;;;11.07;3.97;;;26.70;47.20;;;;;;5064714;28;20432;-60
2023/10/10 13:07:39;;;;;;;14.47;4.20;;;26.60;47.20;;;;;;5063674;28;20262;-59
2023/10/10 13:10:10;;;;;;;12.80;4.73;;;26.60;47.30;;;;;;5065837;28;20174;-60
2023/10/10 13:12:36;;;;;;;17.20;5.20;;;26.40;47.10;;;;;;5063387;28;20428;-58
2023/10/10 13:15:18;;;;;;;14.77;4.97;;;26.30;48.10;;;;;;5059792;28;20459;-59
2023/10/10 13:18:11;;;;;;;19.07;5.07;;;26.10;48.50;;;;;;5062107;28;20504;-59
2023/10/10 13:20:38;;;;;;;18.07;5.40;;;26.00;49.20;;;;;;5062111;28;20443;-59
2023/10/10 13:23:06;;;;;;;14.90;4.43;;;25.80;49.40;;;;;;5063720;28;20942;-60
2023/10/10 13:25:37;;;;;;;11.83;4.17;;;25.50;49.80;;;;;;5061699;28;20436;-59
2023/10/10 13:28:09;;;;;;;17.47;5.23;;;25.20;49.80;;;;;;5063111;28;20792;-59
2023/10/10 13:30:41;;;;;;;13.90;4.67;;;24.90;50.00;;;;;;5061979;28;20440;-59
2023/10/10 13:33:07;;;;;;;17.30;5.40;;;24.90;49.90;;;;;;5064366;28;21028;-60
2023/10/10 13:35:37;;;;;;;13.03;4.73;;;25.10;49.40;;;;;;5066537;28;20463;-60
2023/10/10 13:38:05;;;;;;;7.43;3.47;;;25.20;48.70;;;;;;5060776;28;20257;-59
2023/10/10 13:40:37;;;;;;;18.77;4.97;;;25.40;47.90;;;;;;5064722;28;20469;-60
2023/10/10 13:43:08;;;;;;;17.83;5.47;;;25.60;47.50;;;;;;5062211;28;20516;-60
2023/10/10 13:45:38;;;;;;;17.57;4.67;;;25.60;48.10;;;;;;5061663;28;20420;-59
2023/10/10 13:48:14;;;;;;;13.07;5.20;;;25.60;49.20;;;;;;5061574;28;20562;-61
2023/10/10 13:50:44;;;;;;;17.90;4.77;;;25.50;49.70;;;;;;5064874;28;20452;-59
2023/10/10 13:53:14;;;;;;;20.23;5.13;;;25.30;49.70;;;;;;5064031;28;21019;-60
2023/10/10 13:55:45;;;;;;;18.00;5.17;;;25.20;50.30;;;;;;5062308;28;20485;-61
2023/10/10 13:58:16;;;;;;;20.30;5.10;;;25.10;50.60;;;;;;5066847;28;20441;-59
2023/10/10 14:00:52;;;;;;;13.23;4.83;;;24.90;50.90;;;;;;5065056;28;20441;-59
2023/10/10 14:03:35;;;;;;;15.90;4.90;;;24.80;51.80;;;;;;5066488;28;20428;-58
2023/10/10 14:06:07;;;;;;;14.13;4.40;;;24.60;52.40;;;;;;5064105;28;20423;-59
2023/10/10 14:08:33;;;;;;;19.90;6.37;;;24.50;52.90;;;;;;5060529;28;20959;-59
2023/10/10 14:11:00;;;;;;;15.63;5.37;;;24.50;53.10;;;;;;5062687;28;20452;-60
2023/10/10 14:13:27;;;;;;;16.33;5.33;;;24.50;53.20;;;;;;5067027;28;20178;-59
2023/10/10 14:15:57;;;;;;;14.17;5.60;;;24.50;53.00;;;;;;5066824;28;20556;-59
2023/10/10 14:18:30;;;;;;;16.63;5.47;;;24.60;53.00;;;;;;5062717;28;20926;-59
2023/10/10 14:20:56;;;;;;;25.23;5.50;;;24.80;53.10;;;;;;5066668;28;20454;-60
2023/10/10 14:23:26;;;;;;;21.53;5.07;;;24.90;53.00;;;;;;5063698;28;20435;-60
2023/10/10 14:26:11;;;;;;;20.93;5.60;;;25.10;52.30;;;;;;5060720;28;20457;-59
2023/10/10 14:28:37;;;;;;;19.17;5.53;;;25.10;51.50;;;;;;5061962;28;20455;-58
2023/10/10 14:31:03;;;;;;;16.73;5.60;;;25.20;50.50;;;;;;5067145;28;20444;-60
2023/10/10 14:33:29;;;;;;;21.93;5.77;;;25.20;50.70;;;;;;5065497;28;20251;-59
2023/10/10 14:35:54;;;;;;;17.70;5.17;;;25.30;50.70;;;;;;5065441;28;20474;-60
2023/10/10 14:38:20;;;;;;;18.20;5.87;;;25.30;50.80;;;;;;5060074;28;20175;-59
2023/10/10 14:40:45;;;;;;;24.40;7.10;;;25.30;51.30;;;;;;5058750;28;20676;-60
2023/10/10 14:43:11;;;;;;;24.10;5.63;;;25.30;51.30;;;;;;5060840;28;20186;-60
2023/10/10 14:45:43;;;;;;;14.67;5.20;;;25.40;51.30;;;;;;5062595;28;20181;-60
2023/10/10 14:48:14;;;;;;;22.40;5.57;;;25.50;51.30;;;;;;5061744;28;20173;-60
2023/10/10 14:50:40;;;;;;;20.80;5.20;;;25.70;51.30;;;;;;5059557;28;20460;-60
2023/10/10 14:53:09;;;;;;;16.97;5.43;;;25.80;51.30;;;;;;5058642;28;20496;-60
2023/10/10 14:55:44;;;;;;;21.03;5.50;;;26.00;51.10;;;;;;5066271;28;20699;-60
2023/10/10 14:58:12;;;;;;;16.03;5.47;;;26.10;51.00;;;;;;5063090;28;20526;-60
2023/10/10 15:00:43;;;;;;;18.93;6.20;;;25.90;51.00;;;;;;5060343;28;20460;-58
2023/10/10 15:03:13;;;;;;;28.17;6.47;;;25.50;51.70;;;;;;5061086;28;20421;-60
2023/10/10 15:05:47;;;;;;;18.83;6.10;;;25.10;52.60;;;;;;5062128;28;20421;-60
2023/10/10 15:08:14;;;;;;;26.00;5.60;;;24.70;53.50;;;;;;5061111;28;20485;-60
2023/10/10 15:10:40;;;;;;;19.70;5.60;;;24.30;54.30;;;;;;5062753;28;20882;-59
2023/10/10 15:13:11;;;;;;;22.33;6.23;;;23.90;55.00;;;;;;5062473;28;20424;-59
2023/10/10 15:15:37;;;;;;;18.17;5.97;;;23.60;55.60;;;;;;5057756;28;20480;-59
2023/10/10 15:18:03;;;;;;;18.97;5.53;;;23.30;56.40;;;;;;5061539;28;20452;-60
2023/10/10 15:20:29;;;;;;;23.00;6.13;;;23.00;57.00;;;;;;5060228;28;20445;-60
2023/10/10 15:22:55;;;;;;;22.07;5.50;;;22.80;57.50;;;;;;5067051;28;20513;-59
2023/10/10 15:25:23;;;;;;;25.60;5.80;;;22.70;58.00;;;;;;5061048;28;20205;-60
2023/10/10 15:27:53;;;;;;;25.47;6.17;;;22.50;58.40;;;;;;5059180;28;20420;-59
2023/10/10 15:30:18;;;;;;;29.63;6.03;;;22.40;58.80;;;;;;5060405;28;20417;-59
2023/10/10 15:32:47;;;;;;;31.63;6.47;;;22.20;59.20;;;;;;5061925;28;20437;-60
2023/10/10 15:35:18;;;;;;;15.20;5.70;;;22.10;59.60;;;;;;5068516;28;20825;-60
2023/10/10 15:37:43;;;;;;;19.10;6.33;;;22.00;60.10;;;;;;5065919;28;20425;-60
2023/10/10 15:40:20;;;;;;;20.40;6.43;;;21.90;60.50;;;;;;5060013;28;21080;-60
2023/10/10 15:42:48;;;;;;;29.00;6.00;;;21.80;61.00;;;;;;5059614;28;20197;-59
2023/10/10 15:45:20;;;;;;;17.83;5.53;;;21.70;61.40;;;;;;5071060;28;20417;-59
2023/10/10 15:47:54;;;;;;;27.63;6.13;;;21.60;62.50;;;;;;5061572;28;20525;-59